METAR πλησιέστερων αεροδρομίων

 

LGIR - Iraklion Airport
Απόσταση από το σταθμό: ΒΔ 62km
Ενημερώθηκε: 30/09/2020 09:50
Μερικώς νεφελώδης
Μερικώς νεφελώδης
 Ανεμος από ΔΒΔ
Ανεμος: ΔΒΔ 22 km/h
Θερμοκρασία: 24°C
Σημείο Δρόσου: 17°C
Υγρασία: 65%
Βαρόμετρο: 1012 hPa
Νέφη: Μερικώς νεφελώδης
Ορατότητα: 10 km
Λεπτομέρειες νεφών: Μερικώς νεφελώδης 762 m
2020/09/30 06:50 LGIR 300650Z 30012KT 9999 SCT025 24/17 Q1012 NOSIG
LGSA - Souda/Chania Airport
Απόσταση από το σταθμό: ΔΒΔ 154km
Ενημερώθηκε: 30/09/2020 09:20
Λίγα σύννεφα
Λίγα σύννεφα
 Ανεμος από Δ
Ανεμος: Δ 19 km/h
Θερμοκρασία: 23°C
Σημείο Δρόσου: 16°C
Υγρασία: 65%
Βαρόμετρο: 1012 hPa
Νέφη: Λίγα σύννεφα
Ορατότητα: 10 km
Λεπτομέρειες νεφών: Λίγα σύννεφα 610 m
2020/09/30 06:20 LGSA 300620Z 27010KT 9999 FEW020 23/16 Q1012